Time;durP1;ratioP1;P1;durP2;ratioP2;P2;SDS_P1;SDS_P2;PMS_P1;PMS_P2;Temp;Humidity;BMP_temperature;BMP_pressure;BME280_temperature;BME280_humidity;BME280_pressure;Samples;Min_cycle;Max_cycle;Signal;HPM_P1;HPM_P2
2023/01/11 00:01:09;;;;;;;11.82;1.77;;;;;;;9.10;53.84;101189.53;4933775;28;96875;-70
2023/01/11 00:03:36;;;;;;;9.15;2.00;;;;;;;9.11;54.21;101186.00;4932786;28;96786;-68
2023/01/11 00:06:03;;;;;;;8.20;1.88;;;;;;;9.06;54.29;101181.72;4927191;28;99387;-69
2023/01/11 00:08:30;;;;;;;7.60;2.03;;;;;;;9.22;54.59;101183.13;4929846;28;102170;-71
2023/01/11 00:10:56;;;;;;;11.43;2.08;;;;;;;9.15;54.48;101186.78;4936681;28;97651;-68
2023/01/11 00:13:24;;;;;;;11.60;2.15;;;;;;;9.10;54.70;101175.47;4934132;28;96846;-70
2023/01/11 00:15:51;;;;;;;8.88;2.30;;;;;;;9.17;54.31;101183.22;4927165;28;97783;-69
2023/01/11 00:18:17;;;;;;;12.30;2.20;;;;;;;9.37;53.51;101176.63;4932721;28;99261;-70
2023/01/11 00:20:44;;;;;;;12.43;2.22;;;;;;;9.35;53.77;101174.00;4939074;28;97007;-69
2023/01/11 00:23:13;;;;;;;16.17;1.85;;;;;;;9.17;54.26;101175.31;4936917;28;97867;-70
2023/01/11 00:25:39;;;;;;;11.10;2.45;;;;;;;9.31;53.76;101164.44;4936993;28;98846;-69
2023/01/11 00:28:06;;;;;;;14.65;3.20;;;;;;;9.27;53.76;101168.03;4934853;28;99212;-70
2023/01/11 00:30:35;;;;;;;9.95;1.65;;;;;;;9.27;53.91;101154.00;4945695;28;96901;-70
2023/01/11 00:33:01;;;;;;;10.15;2.28;;;;;;;9.42;53.21;101149.22;4933445;28;96813;-71
2023/01/11 00:35:30;;;;;;;10.40;1.70;;;;;;;9.41;53.26;101146.63;4929825;28;98925;-71
2023/01/11 00:37:57;;;;;;;11.40;2.60;;;;;;;9.38;53.47;101144.06;4936565;28;99066;-71
2023/01/11 00:40:25;;;;;;;11.32;2.10;;;;;;;9.54;53.22;101148.06;4936687;28;96853;-70
2023/01/11 00:48:20;;;;;;;9.05;1.90;;;;;;;9.36;53.47;101127.41;4937847;28;97036;-69
2023/01/11 00:50:47;;;;;;;15.20;2.20;;;;;;;9.41;53.53;101125.53;4929029;28;98620;-70
2023/01/11 00:53:14;;;;;;;10.68;2.65;;;;;;;9.42;53.18;101122.84;4929286;28;96901;-70
2023/01/11 00:55:41;;;;;;;11.48;2.13;;;;;;;9.50;52.95;101125.31;4932456;28;99121;-70
2023/01/11 00:58:08;;;;;;;9.30;1.92;;;;;;;9.34;53.24;101114.25;4931712;28;99647;-70
2023/01/11 01:00:34;;;;;;;12.38;2.63;;;;;;;9.46;53.22;101123.63;4934227;28;98132;-70
2023/01/11 01:03:02;;;;;;;7.53;2.45;;;;;;;9.56;52.89;101122.50;4931660;28;97253;-70
2023/01/11 01:05:28;;;;;;;18.45;3.67;;;;;;;9.53;52.89;101104.97;4933101;28;99069;-70
2023/01/11 01:07:55;;;;;;;12.32;2.15;;;;;;;9.52;52.71;101107.66;4935943;28;99502;-70
2023/01/11 01:10:21;;;;;;;14.52;2.15;;;;;;;9.28;53.47;101098.59;4930148;28;96870;-69
2023/01/11 01:15:32;;;;;;;4.68;1.67;;;;;;;9.36;53.55;101101.91;4932103;28;97163;-70
2023/01/11 01:17:59;;;;;;;14.88;2.10;;;;;;;9.41;53.51;101094.72;4941865;28;98753;-69
2023/01/11 01:20:27;;;;;;;11.38;2.22;;;;;;;9.27;53.67;101098.63;4943123;28;96744;-70
2023/01/11 01:22:54;;;;;;;10.43;1.90;;;;;;;9.30;53.69;101101.19;4928420;28;97082;-69
2023/01/11 01:25:20;;;;;;;6.68;2.40;;;;;;;9.18;54.13;101103.22;4932459;28;98779;-71
2023/01/11 01:27:47;;;;;;;11.23;1.88;;;;;;;9.08;54.13;101096.44;4931975;28;99197;-69
2023/01/11 01:30:14;;;;;;;7.13;1.58;;;;;;;9.00;54.54;101100.13;4939741;28;96741;-69
2023/01/11 01:32:40;;;;;;;9.68;1.70;;;;;;;9.08;54.12;101088.53;4925970;28;96856;-70
2023/01/11 01:35:07;;;;;;;8.15;1.65;;;;;;;9.22;53.95;101098.72;4929432;28;98852;-70
2023/01/11 01:37:35;;;;;;;9.05;1.65;;;;;;;9.06;54.22;101090.31;4931284;28;98884;-70
2023/01/11 01:40:02;;;;;;;8.10;1.90;;;;;;;9.24;53.59;101088.16;4930910;28;99082;-69
2023/01/11 01:42:28;;;;;;;9.85;2.40;;;;;;;9.17;53.78;101080.41;4932402;28;99343;-69
2023/01/11 01:44:59;;;;;;;7.57;1.70;;;;;;;9.52;53.27;101075.97;4928283;28;97786;-70
2023/01/11 01:47:38;;;;;;;11.90;2.03;;;;;;;9.58;52.55;101076.69;4928603;28;99208;-70
2023/01/11 01:50:09;;;;;;;14.02;2.42;;;;;;;9.44;53.32;101078.84;4926147;28;97092;-70
2023/01/11 01:52:38;;;;;;;10.18;1.70;;;;;;;9.36;53.04;101064.13;4929725;28;96835;-69
2023/01/11 01:55:10;;;;;;;8.77;1.70;;;;;;;9.45;52.92;101061.25;4927923;28;99016;-70
2023/01/11 01:57:40;;;;;;;7.63;1.52;;;;;;;9.59;52.67;101053.81;4932621;28;101489;-70
2023/01/11 02:00:09;;;;;;;16.13;2.00;;;;;;;9.49;52.64;101054.97;4932418;28;97631;-69
2023/01/11 02:02:39;;;;;;;9.45;1.48;;;;;;;9.71;52.31;101050.88;4932327;28;97059;-70
2023/01/11 02:05:08;;;;;;;10.38;2.17;;;;;;;9.53;52.72;101046.06;4937927;28;97675;-70
2023/01/11 02:07:39;;;;;;;9.38;1.50;;;;;;;9.75;51.76;101046.38;4933476;28;98746;-70
2023/01/11 02:10:08;;;;;;;8.65;1.80;;;;;;;9.50;52.52;101036.47;4937377;28;97520;-69
2023/01/11 02:12:38;;;;;;;10.13;1.85;;;;;;;9.55;52.28;101024.03;4941583;28;97416;-70
2023/01/11 02:15:05;;;;;;;9.52;2.15;;;;;;;9.77;51.97;101020.81;4933777;28;99488;-70
2023/01/11 02:17:32;;;;;;;7.32;1.35;;;;;;;9.64;51.86;101019.41;4934851;28;99461;-70
2023/01/11 02:20:07;;;;;;;13.02;1.55;;;;;;;9.65;51.82;101010.59;4930285;28;96800;-69
2023/01/11 02:23:07;;;;;;;9.60;1.63;;;;;;;9.93;50.88;101019.44;4936764;28;96998;-70
2023/01/11 02:26:06;;;;;;;5.90;1.25;;;;;;;9.82;51.23;101003.94;4923618;28;99022;-70
2023/01/11 02:28:39;;;;;;;8.05;1.30;;;;;;;9.85;51.13;101006.47;4896480;28;98935;-71
2023/01/11 02:31:16;;;;;;;6.93;1.70;;;;;;;9.73;51.10;100998.91;4934562;28;96808;-69
2023/01/11 02:33:52;;;;;;;4.68;1.35;;;;;;;9.77;50.88;100990.00;4935514;28;96721;-70
2023/01/11 02:36:29;;;;;;;9.18;2.33;;;;;;;10.04;50.47;100984.84;4932290;28;99310;-70
2023/01/11 02:39:07;;;;;;;6.53;1.27;;;;;;;9.99;50.38;100985.81;4931734;28;98824;-70
2023/01/11 02:47:18;;;;;;;8.40;1.65;;;;;;;9.96;50.39;100972.72;4929589;28;96806;-70
2023/01/11 02:49:51;;;;;;;9.52;1.70;;;;;;;10.11;49.87;100965.28;4936979;28;99008;-71
2023/01/11 02:52:23;;;;;;;6.57;1.40;;;;;;;10.19;49.86;100964.13;4935955;28;96980;-69
2023/01/11 02:54:55;;;;;;;8.32;1.48;;;;;;;10.18;49.37;100959.75;4934784;28;96912;-70
2023/01/11 02:57:23;;;;;;;8.68;1.73;;;;;;;10.17;49.76;100963.34;4927538;28;98233;-70
2023/01/11 02:59:53;;;;;;;7.13;1.65;;;;;;;9.91;49.96;100960.59;4939007;28;98911;-70
2023/01/11 03:02:20;;;;;;;10.35;1.80;;;;;;;9.80;50.69;100955.59;4928960;28;97284;-70
2023/01/11 03:04:46;;;;;;;7.30;1.30;;;;;;;9.97;50.24;100947.19;4942429;28;97101;-70
2023/01/11 03:07:27;;;;;;;5.38;1.15;;;;;;;10.18;49.71;100948.34;4931089;28;98967;-69
2023/01/11 03:10:06;;;;;;;3.92;1.10;;;;;;;10.03;49.98;100941.72;4929209;28;98906;-70
2023/01/11 03:12:54;;;;;;;6.80;1.48;;;;;;;9.93;50.07;100935.84;4935732;28;96777;-69
2023/01/11 03:15:54;;;;;;;8.07;1.52;;;;;;;9.95;49.75;100934.03;4932646;28;97608;-69
2023/01/11 03:18:32;;;;;;;5.28;1.30;;;;;;;9.68;50.70;100940.13;4933995;28;99095;-70
2023/01/11 03:21:07;;;;;;;7.97;1.65;;;;;;;9.72;50.70;100928.56;4934407;28;98980;-69
2023/01/11 03:23:40;;;;;;;6.73;1.10;;;;;;;9.70;50.34;100926.88;4938247;28;97139;-69
2023/01/11 03:26:19;;;;;;;7.15;1.15;;;;;;;9.93;49.99;100920.00;4937734;28;97173;-70
2023/01/11 03:28:58;;;;;;;6.38;1.10;;;;;;;9.74;50.65;100921.47;4925964;28;97669;-69
2023/01/11 03:31:32;;;;;;;9.18;1.42;;;;;;;9.89;50.09;100921.03;4938905;28;99246;-69
2023/01/11 03:34:05;;;;;;;10.00;1.25;;;;;;;9.69;50.62;100912.84;4938520;28;96781;-70
2023/01/11 03:36:37;;;;;;;10.30;1.48;;;;;;;9.82;50.34;100908.91;4931730;28;97829;-68
2023/01/11 03:39:10;;;;;;;11.48;1.52;;;;;;;9.69;50.57;100904.91;4937947;28;98952;-68
2023/01/11 03:41:40;;;;;;;5.63;1.15;;;;;;;9.78;50.38;100909.06;4937162;28;98812;-70
2023/01/11 03:44:11;;;;;;;7.03;1.92;;;;;;;9.75;50.25;100898.59;4937284;28;96794;-69
2023/01/11 03:46:45;;;;;;;6.00;1.38;;;;;;;10.09;49.94;100898.44;4933331;28;96800;-69
2023/01/11 03:49:15;;;;;;;4.30;1.00;;;;;;;10.20;49.43;100897.22;4927799;28;100873;-70
2023/01/11 03:51:44;;;;;;;5.20;1.10;;;;;;;9.89;50.00;100886.72;4942346;28;100274;-68
2023/01/11 03:54:15;;;;;;;7.25;1.52;;;;;;;9.86;50.62;100892.06;4931258;28;98780;-69
2023/01/11 03:56:49;;;;;;;7.35;1.38;;;;;;;9.62;51.09;100881.38;4941759;28;96851;-70
2023/01/11 03:59:15;;;;;;;5.88;1.17;;;;;;;9.74;50.98;100887.16;4931424;28;99479;-69
2023/01/11 04:01:44;;;;;;;9.68;1.25;;;;;;;9.72;51.15;100888.09;4933161;28;98729;-70
2023/01/11 04:04:10;;;;;;;6.63;1.35;;;;;;;9.51;51.60;100885.22;4924539;28;96875;-70
2023/01/11 04:06:37;;;;;;;4.78;1.15;;;;;;;9.53;51.59;100893.94;4940069;28;97612;-69
2023/01/11 04:09:04;;;;;;;3.83;1.10;;;;;;;9.70;51.41;100882.03;4932483;28;99085;-70
2023/01/11 04:11:30;;;;;;;6.72;1.33;;;;;;;10.02;50.67;100887.19;4935497;28;97698;-69
2023/01/11 04:13:57;;;;;;;12.18;1.80;;;;;;;9.80;50.86;100878.19;4936930;28;98674;-71
2023/01/11 04:16:23;;;;;;;4.57;1.08;;;;;;;9.72;51.85;100878.41;4932370;28;96824;-70
2023/01/11 04:18:51;;;;;;;6.03;1.00;;;;;;;9.56;52.07;100864.84;4934730;28;101796;-71
2023/01/11 04:21:17;;;;;;;9.32;1.80;;;;;;;9.87;51.74;100864.78;4932056;28;99027;-69
2023/01/11 04:23:43;;;;;;;5.43;1.40;;;;;;;10.00;50.81;100858.19;4936141;28;96749;-69
2023/01/11 04:26:10;;;;;;;8.57;1.40;;;;;;;10.13;50.76;100860.44;4935591;28;98843;-68
2023/01/11 04:28:36;;;;;;;8.07;1.38;;;;;;;10.13;50.73;100861.31;4935356;28;101367;-68
2023/01/11 04:31:03;;;;;;;6.50;1.20;;;;;;;10.25;50.51;100860.09;4939073;28;99054;-68
2023/01/11 04:33:29;;;;;;;6.10;1.63;;;;;;;10.26;50.16;100852.13;4933036;28;96752;-69
2023/01/11 04:35:57;;;;;;;8.20;1.42;;;;;;;10.38;50.09;100849.06;4934667;28;97612;-69
2023/01/11 04:38:23;;;;;;;6.43;0.93;;;;;;;10.34;50.07;100841.31;4929228;28;99426;-68
2023/01/11 04:42:17;;;;;;;5.18;1.20;;;;;;;10.35;50.14;100837.75;4944309;28;99127;-69
2023/01/11 04:43:36;;;;;;;8.15;1.55;;;;;;;10.33;50.27;100835.16;4929621;28;97338;-69
2023/01/11 04:46:02;;;;;;;;;;;;;;;10.27;50.58;100823.94;4924475;28;96871;-68
2023/01/11 04:48:28;;;;;;;5.15;1.08;;;;;;;10.33;50.27;100823.72;4926071;28;98832;-68
2023/01/11 04:50:54;;;;;;;4.07;1.02;;;;;;;10.11;50.75;100822.69;4930667;28;102461;-69
2023/01/11 04:53:22;;;;;;;6.43;1.17;;;;;;;10.28;50.91;100823.03;4932100;28;99047;-68
2023/01/11 04:55:49;;;;;;;6.00;1.48;;;;;;;10.59;50.10;100826.34;4936653;28;96985;-71
2023/01/11 04:58:15;;;;;;;9.43;1.23;;;;;;;10.38;50.64;100832.34;4933294;28;99652;-70
2023/01/11 05:00:42;;;;;;;7.55;1.13;;;;;;;10.57;50.03;100833.47;4929045;28;102333;-70
2023/01/11 05:03:08;;;;;;;3.50;1.25;;;;;;;10.61;50.03;100826.31;4930580;28;96742;-71
2023/01/11 05:05:34;;;;;;;3.83;0.90;;;;;;;10.48;50.06;100817.06;4929629;28;98652;-69
2023/01/11 05:08:00;;;;;;;6.15;1.20;;;;;;;10.42;50.50;100815.50;4932825;28;99165;-70
2023/01/11 05:10:28;;;;;;;9.32;2.10;;;;;;;10.59;50.19;100809.63;4928401;28;99205;-70
2023/01/11 05:12:55;;;;;;;5.57;1.48;;;;;;;10.35;50.68;100812.22;4934742;28;97299;-70
2023/01/11 05:15:21;;;;;;;4.57;0.90;;;;;;;10.48;50.36;100815.31;4925641;28;97022;-69
2023/01/11 05:17:47;;;;;;;8.95;1.48;;;;;;;10.32;50.92;100804.38;4939988;28;101977;-71
2023/01/11 05:20:14;;;;;;;7.72;1.60;;;;;;;10.36;50.89;100807.78;4932757;28;99565;-71
2023/01/11 05:22:40;;;;;;;7.43;1.80;;;;;;;10.37;50.82;100804.25;4931067;28;96876;-70
2023/01/11 05:25:07;;;;;;;8.43;1.98;;;;;;;10.24;51.35;100793.19;4925783;28;96993;-70
2023/01/11 05:27:35;;;;;;;7.97;1.30;;;;;;;10.02;51.94;100800.09;4933648;28;98649;-70
2023/01/11 05:30:02;;;;;;;5.25;1.10;;;;;;;10.29;51.67;100785.13;4929690;28;99255;-70
2023/01/11 05:32:30;;;;;;;5.93;1.23;;;;;;;10.23;51.68;100799.41;4931845;28;97793;-71
2023/01/11 05:34:56;;;;;;;5.95;0.95;;;;;;;10.39;51.21;100795.34;4933972;28;96997;-70
2023/01/11 05:37:26;;;;;;;12.45;2.15;;;;;;;10.34;51.44;100794.63;4931848;28;99195;-70
2023/01/11 05:39:52;;;;;;;5.93;1.20;;;;;;;10.58;50.95;100789.41;4932440;28;98003;-71
2023/01/11 05:42:19;;;;;;;6.88;1.17;;;;;;;10.45;51.55;100782.81;4927432;28;98665;-71
2023/01/11 05:47:30;;;;;;;5.22;1.23;;;;;;;10.74;50.60;100767.69;4928454;28;98030;-71
2023/01/11 05:49:57;;;;;;;8.15;1.33;;;;;;;10.68;50.77;100777.63;4929412;28;98089;-71
2023/01/11 05:52:24;;;;;;;5.13;1.30;;;;;;;10.75;50.79;100772.06;4931582;28;97075;-72
2023/01/11 05:54:50;;;;;;;7.53;1.65;;;;;;;10.71;51.04;100775.72;4929257;28;99119;-71
2023/01/11 05:57:16;;;;;;;8.35;1.73;;;;;;;10.82;50.92;100778.00;4931832;28;97066;-71
2023/01/11 05:59:43;;;;;;;6.70;1.80;;;;;;;10.73;51.36;100778.31;4933156;28;99016;-71
2023/01/11 06:02:10;;;;;;;6.43;1.30;;;;;;;10.74;51.70;100772.97;4931775;28;96934;-71
2023/01/11 06:04:37;;;;;;;8.38;1.25;;;;;;;10.71;51.84;100773.06;4931205;28;96836;-71
2023/01/11 06:07:03;;;;;;;5.47;1.25;;;;;;;10.82;51.88;100769.19;4926391;28;98864;-72
2023/01/11 06:09:30;;;;;;;7.65;1.30;;;;;;;10.65;52.20;100761.84;4928735;28;98815;-71
2023/01/11 06:11:56;;;;;;;6.97;1.58;;;;;;;10.74;52.28;100757.13;4929861;28;96926;-71
2023/01/11 06:14:23;;;;;;;8.35;1.40;;;;;;;10.64;52.51;100758.34;4939160;28;96878;-71
2023/01/11 06:16:49;;;;;;;7.78;1.30;;;;;;;10.69;52.65;100751.16;4927019;28;98639;-72
2023/01/11 06:19:17;;;;;;;7.50;1.65;;;;;;;10.60;52.87;100745.31;4926995;28;98866;-71
2023/01/11 06:21:43;;;;;;;6.57;1.02;;;;;;;10.73;52.78;100752.75;4928722;28;97745;-72
2023/01/11 06:24:10;;;;;;;4.28;1.10;;;;;;;10.57;52.88;100754.19;4928959;28;96916;-71
2023/01/11 06:26:36;;;;;;;5.68;1.20;;;;;;;10.68;52.81;100749.41;4932246;28;99007;-71
2023/01/11 06:29:02;;;;;;;8.90;1.73;;;;;;;10.82;52.74;100740.13;4932985;28;99120;-71
2023/01/11 06:31:29;;;;;;;7.63;1.20;;;;;;;10.71;52.75;100749.28;4922498;28;97502;-71
2023/01/11 06:33:55;;;;;;;6.47;1.33;;;;;;;10.73;52.88;100739.53;4928699;28;96768;-71
2023/01/11 06:36:23;;;;;;;11.02;1.30;;;;;;;10.72;52.76;100732.53;4923861;28;99038;-71
2023/01/11 06:38:49;;;;;;;5.72;1.50;;;;;;;10.84;52.66;100730.34;4933327;28;99028;-72
2023/01/11 06:41:16;;;;;;;7.18;2.58;;;;;;;10.74;52.68;100730.69;4927675;28;96859;-72
2023/01/11 06:43:42;;;;;;;7.00;1.30;;;;;;;10.89;52.51;100741.63;4929639;28;97343;-71
2023/01/11 06:46:13;;;;;;;2.90;1.00;;;;;;;10.93;52.30;100745.88;4927375;28;98924;-71
2023/01/11 06:48:39;;;;;;;3.60;1.08;;;;;;;10.68;52.56;100746.78;4933963;28;98926;-73
2023/01/11 06:51:09;;;;;;;5.85;1.20;;;;;;;10.65;53.23;100749.50;4940570;28;97037;-72
2023/01/11 06:53:37;;;;;;;2.45;0.85;;;;;;;10.63;53.36;100743.41;4930820;28;98833;-71
2023/01/11 06:56:04;;;;;;;5.15;1.20;;;;;;;10.62;53.20;100748.78;4939667;28;99124;-71
2023/01/11 06:58:31;;;;;;;5.35;1.52;;;;;;;10.55;53.56;100756.06;4932531;28;100575;-70
2023/01/11 07:00:57;;;;;;;4.05;1.20;;;;;;;10.54;53.61;100754.31;4938777;28;98125;-70
2023/01/11 07:03:25;;;;;;;6.10;1.00;;;;;;;10.59;53.69;100748.88;4936014;28;96839;-71
2023/01/11 07:05:52;;;;;;;3.83;1.17;;;;;;;10.71;53.33;100748.41;4937642;28;98864;-72
2023/01/11 07:08:19;;;;;;;7.75;1.73;;;;;;;10.61;53.41;100758.47;4934386;28;99281;-70
2023/01/11 07:10:47;;;;;;;5.22;1.70;;;;;;;10.73;53.21;100765.09;4933152;28;96819;-72
2023/01/11 07:13:15;;;;;;;4.18;1.00;;;;;;;10.78;52.80;100764.00;4933637;28;96869;-71
2023/01/11 07:15:41;;;;;;;4.00;1.10;;;;;;;10.81;52.85;100757.75;4928394;28;99573;-71
2023/01/11 07:18:08;;;;;;;2.67;1.02;;;;;;;10.87;52.53;100769.88;4931544;28;99326;-71
2023/01/11 07:20:35;;;;;;;3.83;0.95;;;;;;;10.85;52.36;100764.66;4929425;28;97778;-71
2023/01/11 07:23:01;;;;;;;6.15;1.40;;;;;;;11.08;52.17;100771.75;4930247;28;96832;-72
2023/01/11 07:25:28;;;;;;;3.30;0.88;;;;;;;11.10;51.74;100776.03;4930732;28;98950;-71
2023/01/11 07:28:00;;;;;;;4.53;1.67;;;;;;;11.11;51.70;100769.84;4929173;28;102726;-71
2023/01/11 07:30:29;;;;;;;7.38;1.02;;;;;;;10.93;52.34;100778.47;4931668;28;99124;-71
2023/01/11 07:32:57;;;;;;;4.07;1.13;;;;;;;11.03;51.94;100769.25;4933156;28;97019;-72
2023/01/11 07:35:23;;;;;;;5.15;1.23;;;;;;;11.07;52.01;100780.59;4927371;28;99030;-73
2023/01/11 07:37:50;;;;;;;6.72;1.25;;;;;;;10.99;52.32;100772.94;4932695;28;99352;-72
2023/01/11 07:40:17;;;;;;;5.30;1.08;;;;;;;11.00;52.08;100765.88;4933626;28;97495;-72
2023/01/11 07:45:34;;;;;;;4.50;0.90;;;;;;;10.85;52.50;100774.34;4931199;28;97411;-73
2023/01/11 07:48:01;;;;;;;5.22;0.98;;;;;;;10.91;52.42;100759.13;4925500;28;99009;-74
2023/01/11 07:50:27;;;;;;;5.13;1.30;;;;;;;10.74;52.99;100767.69;4934655;28;97122;-73
2023/01/11 07:52:54;;;;;;;5.03;0.95;;;;;;;11.09;52.39;100762.91;4932459;28;99565;-72
2023/01/11 07:55:20;;;;;;;5.00;1.00;;;;;;;10.99;52.68;100761.50;4931573;28;99236;-73
2023/01/11 07:57:46;;;;;;;5.60;1.48;;;;;;;11.07;52.60;100764.72;4933804;28;97640;-73
2023/01/11 08:00:14;;;;;;;6.45;1.33;;;;;;;11.03;52.65;100763.97;4932893;28;97275;-72
2023/01/11 08:02:42;;;;;;;4.38;1.10;;;;;;;10.98;52.69;100763.28;4931423;28;97296;-73
2023/01/11 08:05:09;;;;;;;5.80;1.20;;;;;;;10.86;53.01;100765.50;4937299;28;99544;-73
2023/01/11 08:07:36;;;;;;;2.97;1.13;;;;;;;10.58;54.17;100761.22;4935073;28;99264;-72
2023/01/11 08:10:03;;;;;;;2.38;0.82;;;;;;;10.75;53.95;100753.56;4931775;28;97262;-72
2023/01/11 08:15:14;;;;;;;7.25;1.55;;;;;;;10.96;53.24;100751.06;4926007;28;97766;-72
2023/01/11 08:17:42;;;;;;;7.45;1.35;;;;;;;11.05;53.21;100748.06;4939847;28;101835;-72
2023/01/11 08:20:09;;;;;;;3.78;1.33;;;;;;;10.77;54.06;100745.56;4936712;28;96784;-72
2023/01/11 08:22:36;;;;;;;9.18;1.50;;;;;;;10.87;54.07;100749.59;4933038;28;98331;-71
2023/01/11 08:25:02;;;;;;;5.68;1.70;;;;;;;11.08;53.33;100745.31;4942528;28;97642;-72
2023/01/11 08:27:31;;;;;;;9.25;1.25;;;;;;;10.91;53.81;100747.69;4930908;28;97491;-72
2023/01/11 08:29:58;;;;;;;5.30;1.42;;;;;;;11.11;53.68;100755.75;4933625;28;96872;-72
2023/01/11 08:32:28;;;;;;;4.13;1.15;;;;;;;11.18;53.21;100738.75;4937879;28;98601;-74
2023/01/11 08:34:55;;;;;;;5.10;1.10;;;;;;;10.97;54.02;100743.03;4932033;28;98976;-72
2023/01/11 08:37:22;;;;;;;3.15;1.20;;;;;;;11.27;53.58;100743.69;4934458;28;99340;-72
2023/01/11 08:39:48;;;;;;;5.60;1.33;;;;;;;11.23;53.74;100738.56;4926857;28;96828;-73
2023/01/11 08:42:15;;;;;;;3.78;0.95;;;;;;;11.24;53.80;100733.22;4930159;28;97696;-73
2023/01/11 08:44:42;;;;;;;8.65;1.70;;;;;;;11.07;54.13;100739.16;4927502;28;100298;-73
2023/01/11 08:47:08;;;;;;;3.50;1.10;;;;;;;11.05;54.67;100746.28;4929001;28;99758;-73
2023/01/11 08:49:35;;;;;;;6.13;1.17;;;;;;;11.18;54.38;100736.09;4939125;28;96761;-73
2023/01/11 08:52:02;;;;;;;4.88;1.70;;;;;;;11.17;54.37;100737.00;4929645;28;97289;-72
2023/01/11 08:54:29;;;;;;;4.07;1.15;;;;;;;11.34;54.01;100737.25;4924210;28;97735;-73
2023/01/11 08:56:55;;;;;;;9.07;1.23;;;;;;;11.45;54.42;100729.75;4933543;28;98447;-73
2023/01/11 08:59:22;;;;;;;4.43;1.27;;;;;;;11.52;55.19;100731.22;4930089;28;97213;-72
2023/01/11 09:01:48;;;;;;;7.35;1.42;;;;;;;11.24;56.30;100729.69;4929394;28;99047;-71
2023/01/11 09:04:14;;;;;;;6.32;1.20;;;;;;;11.46;56.10;100734.13;4923633;28;99287;-72
2023/01/11 09:06:41;;;;;;;7.35;1.48;;;;;;;11.56;56.28;100740.75;4924980;28;98788;-71
2023/01/11 09:09:09;;;;;;;3.08;1.20;;;;;;;11.65;55.75;100731.59;4928692;28;97887;-73
2023/01/11 09:14:19;;;;;;;3.42;1.50;;;;;;;11.41;56.66;100730.78;4926326;28;97245;-72
2023/01/11 09:16:45;;;;;;;5.90;1.27;;;;;;;11.38;56.73;100717.69;4925776;28;100379;-73
2023/01/11 09:19:12;;;;;;;5.13;1.48;;;;;;;11.36;56.70;100726.56;4927944;28;96930;-73
2023/01/11 09:21:38;;;;;;;2.70;0.95;;;;;;;11.25;57.38;100721.72;4923896;28;98594;-74
2023/01/11 09:24:05;;;;;;;5.40;1.20;;;;;;;11.12;58.07;100728.41;4928380;28;99361;-71
2023/01/11 09:26:34;;;;;;;4.68;1.20;;;;;;;10.91;59.26;100719.47;4927318;28;100398;-73
2023/01/11 09:29:01;;;;;;;3.55;1.40;;;;;;;11.05;59.37;100726.91;4925118;28;97538;-72
2023/01/11 09:31:27;;;;;;;6.82;2.08;;;;;;;10.88;60.82;100719.63;4927811;28;96937;-72
2023/01/11 09:33:53;;;;;;;3.33;1.60;;;;;;;10.76;62.25;100712.97;4924911;28;99351;-72
2023/01/11 09:36:22;;;;;;;3.67;1.40;;;;;;;11.02;61.82;100716.47;4927291;28;98911;-72
2023/01/11 09:38:49;;;;;;;2.33;1.13;;;;;;;11.06;62.12;100710.97;4928156;28;96901;-71
2023/01/11 09:41:32;;;;;;;3.85;1.23;;;;;;;11.05;62.38;100718.97;4935465;28;97232;-72
2023/01/11 09:44:09;;;;;;;4.30;1.38;;;;;;;10.90;63.64;100719.53;4923332;28;101083;-73
2023/01/11 09:46:41;;;;;;;4.38;1.25;;;;;;;10.91;64.12;100705.41;4935631;28;101209;-72
2023/01/11 09:49:15;;;;;;;4.72;1.40;;;;;;;10.70;65.40;100701.75;4927615;28;97896;-71
2023/01/11 09:51:42;;;;;;;3.47;1.23;;;;;;;10.64;66.02;100702.84;4938651;28;97095;-72
2023/01/11 09:54:18;;;;;;;2.75;1.55;;;;;;;10.83;65.97;100703.03;4927476;28;102394;-71
2023/01/11 09:56:50;;;;;;;4.57;1.40;;;;;;;10.76;66.78;100710.31;4928638;28;98918;-72
2023/01/11 09:59:25;;;;;;;4.65;1.23;;;;;;;10.71;66.97;100704.34;4925271;28;97738;-72
2023/01/11 10:02:00;;;;;;;3.40;1.58;;;;;;;10.91;66.70;100713.34;4929609;28;98741;-72
2023/01/11 10:04:40;;;;;;;3.03;1.40;;;;;;;11.01;66.40;100702.38;4928369;28;99251;-72
2023/01/11 10:07:21;;;;;;;6.50;1.63;;;;;;;10.97;67.90;100698.09;4928025;28;98062;-72
2023/01/11 10:09:57;;;;;;;1.85;1.10;;;;;;;11.08;66.54;100697.72;4927218;28;96859;-73
2023/01/11 10:12:33;;;;;;;2.55;1.13;;;;;;;10.86;67.13;100689.72;4924199;28;97403;-72
2023/01/11 10:15:12;;;;;;;4.53;1.30;;;;;;;10.58;68.30;100691.66;4918995;28;97779;-71
2023/01/11 10:17:47;;;;;;;5.45;1.27;;;;;;;10.76;68.31;100685.72;4928950;28;101018;-72
2023/01/11 10:20:23;;;;;;;4.40;1.50;;;;;;;11.05;67.82;100679.31;4925192;28;99881;-72
2023/01/11 10:22:53;;;;;;;2.85;1.50;;;;;;;11.06;67.35;100670.47;4926234;28;97469;-73
2023/01/11 10:25:25;;;;;;;5.55;1.33;;;;;;;11.24;67.17;100667.09;4925616;28;98943;-72
2023/01/11 10:27:58;;;;;;;4.20;1.20;;;;;;;11.15;67.50;100667.47;4928312;28;99108;-73
2023/01/11 10:30:47;;;;;;;5.07;1.77;;;;;;;11.37;67.05;100664.81;4930284;28;97491;-72
2023/01/11 10:33:28;;;;;;;4.72;1.50;;;;;;;11.30;66.65;100666.84;4929970;28;99696;-71
2023/01/11 10:36:17;;;;;;;3.70;1.50;;;;;;;11.26;67.38;100659.97;4927927;28;98995;-72
2023/01/11 10:39:01;;;;;;;7.55;1.60;;;;;;;11.42;66.55;100653.13;4925112;28;98785;-71
2023/01/11 10:41:37;;;;;;;3.38;1.15;;;;;;;11.62;65.90;100667.34;4925185;28;97004;-71
2023/01/11 10:44:17;;;;;;;5.88;1.48;;;;;;;11.59;66.21;100655.97;4928336;28;96866;-71
2023/01/11 10:46:49;;;;;;;6.43;1.58;;;;;;;11.53;66.06;100656.22;4930766;28;99718;-72
2023/01/11 10:49:30;;;;;;;4.13;1.80;;;;;;;11.55;65.88;100654.34;4924550;28;98236;-72
2023/01/11 10:52:03;;;;;;;3.83;1.48;;;;;;;11.61;65.95;100655.03;4925085;28;97669;-71
2023/01/11 10:54:34;;;;;;;1.52;1.20;;;;;;;11.54;66.54;100652.66;4925576;28;96886;-71
2023/01/11 10:57:14;;;;;;;4.38;1.50;;;;;;;11.76;66.12;100659.72;4932679;28;98726;-70
2023/01/11 10:59:56;;;;;;;1.77;1.40;;;;;;;11.83;65.90;100661.19;4920529;28;99621;-71
2023/01/11 11:02:39;;;;;;;1.63;1.20;;;;;;;11.84;66.41;100647.88;4929106;28;97334;-71
2023/01/11 11:05:19;;;;;;;3.95;1.80;;;;;;;12.14;65.26;100651.00;4923449;28;98911;-72
2023/01/11 11:07:54;;;;;;;6.15;1.75;;;;;;;12.07;65.49;100641.63;4929211;28;98397;-71
2023/01/11 11:10:28;;;;;;;2.92;1.63;;;;;;;12.01;65.89;100641.91;4922973;28;100452;-72
2023/01/11 11:13:06;;;;;;;7.22;2.05;;;;;;;11.93;66.35;100641.34;4930334;28;96905;-70
2023/01/11 11:15:38;;;;;;;4.68;1.33;;;;;;;11.70;67.26;100634.34;4925560;28;97150;-72
2023/01/11 11:18:06;;;;;;;4.90;1.40;;;;;;;11.78;67.27;100632.25;4935454;28;98915;-70
2023/01/11 11:20:34;;;;;;;6.20;1.50;;;;;;;12.05;66.80;100624.94;4925559;28;100826;-72
2023/01/11 11:23:00;;;;;;;3.13;1.45;;;;;;;11.81;67.90;100628.63;4926656;28;97122;-72
2023/01/11 11:25:31;;;;;;;3.05;1.50;;;;;;;11.89;67.54;100622.06;4930309;28;97453;-71
2023/01/11 11:28:02;;;;;;;2.55;1.48;;;;;;;11.80;68.33;100624.25;4929032;28;99425;-71
2023/01/11 11:30:31;;;;;;;3.25;1.63;;;;;;;11.86;68.35;100613.41;4929690;28;98900;-70
2023/01/11 11:33:01;;;;;;;1.10;1.00;;;;;;;11.71;68.58;100611.38;4928465;28;97667;-72
2023/01/11 11:35:35;;;;;;;2.80;1.20;;;;;;;11.55;69.19;100612.00;4932791;28;96864;-71
2023/01/11 11:38:02;;;;;;;2.38;1.33;;;;;;;11.96;68.44;100609.44;4927856;28;97888;-73
2023/01/11 11:40:31;;;;;;;4.63;1.70;;;;;;;11.92;68.48;100600.78;4935890;28;98685;-72
2023/01/11 11:43:17;;;;;;;4.25;1.42;;;;;;;12.10;67.63;100603.53;4929158;28;97744;-71
2023/01/11 11:45:52;;;;;;;1.95;1.23;;;;;;;11.86;68.99;100602.81;4931181;28;97191;-71
2023/01/11 11:48:19;;;;;;;2.30;1.45;;;;;;;11.93;68.33;100599.84;4924500;28;99790;-72
2023/01/11 11:50:48;;;;;;;3.13;1.38;;;;;;;11.98;68.56;100607.59;4927876;28;100626;-72
2023/01/11 11:53:26;;;;;;;2.67;1.10;;;;;;;12.06;68.30;100605.47;4930016;28;96910;-72
2023/01/11 11:55:54;;;;;;;2.13;0.93;;;;;;;12.01;68.31;100602.16;4931464;28;97149;-72
2023/01/11 11:58:25;;;;;;;2.88;1.40;;;;;;;12.20;67.72;100602.22;4928922;28;100778;-74
2023/01/11 12:00:52;;;;;;;3.10;1.45;;;;;;;12.26;67.44;100592.22;4929617;28;101380;-72
2023/01/11 12:03:22;;;;;;;2.65;1.58;;;;;;;12.25;67.56;100592.28;4930118;28;97241;-72